Childs, Maryland
Current Conditions -  °F | °C
As of 1:51 PM on Friday 31 Oct 2014 (Local Time) from KILG Reporting Station
Overcast Overcast  
Wind Chill: 55°   Ceiling: 5500
Heat Index: 55°   Visibility: 10mi
Dew Point: 37°   Wind: 7mph
Humidity: 51%   Direction: 20°NNE
Pressure: 29.92"   Gusts: NA
Location:  39.65°N, 75.87°W
Report Text: KILG 311751Z 02006KT 10SM OVC055 13/03 A2992 RMK AO2 SLP131 T01280028 10128 20022 58027
Loading
Personal Weather Stations






























Interactive Weather Map
Tropical Storm Tracking
New forecast layout! Learn more

10-Day Weather Forecast

Advertisements
Track Severe Weather on mobile